sensor_id;sensor_type;location;lat;lon;timestamp;P1;durP1;ratioP1;P2;durP2;ratioP2
27746;SDS011;15138;51.012;4.692;2023-01-16T00:00:20;5.65;;;1.13;;
27746;SDS011;15138;51.012;4.692;2023-01-16T00:02:48;7.50;;;1.55;;
27746;SDS011;15138;51.012;4.692;2023-01-16T00:05:16;6.80;;;1.52;;
27746;SDS011;15138;51.012;4.692;2023-01-16T00:07:44;5.95;;;1.17;;
27746;SDS011;15138;51.012;4.692;2023-01-16T00:10:13;14.45;;;1.60;;
27746;SDS011;15138;51.012;4.692;2023-01-16T00:12:42;5.45;;;1.10;;
27746;SDS011;15138;51.012;4.692;2023-01-16T00:15:14;6.38;;;1.50;;
27746;SDS011;15138;51.012;4.692;2023-01-16T00:17:43;6.20;;;1.50;;
27746;SDS011;15138;51.012;4.692;2023-01-16T00:20:11;9.05;;;1.50;;
27746;SDS011;15138;51.012;4.692;2023-01-16T00:22:39;7.05;;;1.55;;
27746;SDS011;15138;51.012;4.692;2023-01-16T00:25:08;4.95;;;1.40;;
27746;SDS011;15138;51.012;4.692;2023-01-16T00:27:36;7.07;;;1.13;;
27746;SDS011;15138;51.012;4.692;2023-01-16T00:30:05;10.35;;;1.80;;
27746;SDS011;15138;51.012;4.692;2023-01-16T00:32:34;6.57;;;1.23;;
27746;SDS011;15138;51.012;4.692;2023-01-16T00:35:05;5.82;;;1.33;;
27746;SDS011;15138;51.012;4.692;2023-01-16T00:37:33;8.70;;;1.30;;
27746;SDS011;15138;51.012;4.692;2023-01-16T00:40:02;5.68;;;1.17;;
27746;SDS011;15138;51.012;4.692;2023-01-16T00:42:30;5.53;;;1.20;;
27746;SDS011;15138;51.012;4.692;2023-01-16T00:44:58;4.20;;;1.13;;
27746;SDS011;15138;51.012;4.692;2023-01-16T00:47:26;8.63;;;1.58;;
27746;SDS011;15138;51.012;4.692;2023-01-16T00:49:54;5.78;;;1.23;;
27746;SDS011;15138;51.012;4.692;2023-01-16T00:52:24;4.35;;;1.20;;
27746;SDS011;15138;51.012;4.692;2023-01-16T00:54:52;2.60;;;0.95;;
27746;SDS011;15138;51.012;4.692;2023-01-16T00:57:20;5.68;;;1.27;;
27746;SDS011;15138;51.012;4.692;2023-01-16T00:59:48;5.75;;;1.00;;
27746;SDS011;15138;51.012;4.692;2023-01-16T01:02:16;4.53;;;1.00;;
27746;SDS011;15138;51.012;4.692;2023-01-16T01:04:45;3.72;;;1.35;;
27746;SDS011;15138;51.012;4.692;2023-01-16T01:07:13;3.83;;;1.25;;
27746;SDS011;15138;51.012;4.692;2023-01-16T01:09:42;7.43;;;1.23;;
27746;SDS011;15138;51.012;4.692;2023-01-16T01:12:10;5.70;;;0.90;;
27746;SDS011;15138;51.012;4.692;2023-01-16T01:14:38;6.45;;;1.23;;
27746;SDS011;15138;51.012;4.692;2023-01-16T01:17:07;5.07;;;1.20;;
27746;SDS011;15138;51.012;4.692;2023-01-16T01:19:36;2.67;;;0.95;;
27746;SDS011;15138;51.012;4.692;2023-01-16T01:22:04;7.95;;;1.38;;
27746;SDS011;15138;51.012;4.692;2023-01-16T01:24:32;5.80;;;1.65;;
27746;SDS011;15138;51.012;4.692;2023-01-16T01:27:01;8.05;;;2.08;;
27746;SDS011;15138;51.012;4.692;2023-01-16T01:29:30;6.25;;;0.95;;
27746;SDS011;15138;51.012;4.692;2023-01-16T01:31:58;4.85;;;1.00;;
27746;SDS011;15138;51.012;4.692;2023-01-16T01:34:26;6.65;;;1.40;;
27746;SDS011;15138;51.012;4.692;2023-01-16T01:36:57;6.30;;;1.45;;
27746;SDS011;15138;51.012;4.692;2023-01-16T01:39:25;4.03;;;1.20;;
27746;SDS011;15138;51.012;4.692;2023-01-16T01:41:53;5.85;;;1.20;;
27746;SDS011;15138;51.012;4.692;2023-01-16T01:44:48;5.60;;;1.23;;
27746;SDS011;15138;51.012;4.692;2023-01-16T01:47:18;7.07;;;1.25;;
27746;SDS011;15138;51.012;4.692;2023-01-16T01:49:50;5.82;;;1.42;;
27746;SDS011;15138;51.012;4.692;2023-01-16T01:52:20;9.10;;;1.58;;
27746;SDS011;15138;51.012;4.692;2023-01-16T01:54:50;5.97;;;1.13;;
27746;SDS011;15138;51.012;4.692;2023-01-16T01:57:23;5.30;;;1.50;;
27746;SDS011;15138;51.012;4.692;2023-01-16T01:59:56;10.32;;;1.45;;
27746;SDS011;15138;51.012;4.692;2023-01-16T02:02:29;5.60;;;1.40;;
27746;SDS011;15138;51.012;4.692;2023-01-16T02:05:01;5.80;;;1.30;;
27746;SDS011;15138;51.012;4.692;2023-01-16T02:07:33;8.52;;;1.92;;
27746;SDS011;15138;51.012;4.692;2023-01-16T02:10:03;7.38;;;1.90;;
27746;SDS011;15138;51.012;4.692;2023-01-16T02:15:07;7.30;;;2.10;;
27746;SDS011;15138;51.012;4.692;2023-01-16T02:17:38;8.77;;;2.15;;
27746;SDS011;15138;51.012;4.692;2023-01-16T02:20:46;7.50;;;1.48;;
27746;SDS011;15138;51.012;4.692;2023-01-16T02:29:50;8.70;;;1.88;;
27746;SDS011;15138;51.012;4.692;2023-01-16T02:32:51;6.90;;;1.42;;
27746;SDS011;15138;51.012;4.692;2023-01-16T02:35:49;5.90;;;1.65;;
27746;SDS011;15138;51.012;4.692;2023-01-16T02:38:29;8.57;;;1.60;;
27746;SDS011;15138;51.012;4.692;2023-01-16T02:41:07;14.68;;;2.22;;
27746;SDS011;15138;51.012;4.692;2023-01-16T02:43:45;9.02;;;2.00;;
27746;SDS011;15138;51.012;4.692;2023-01-16T02:46:21;7.15;;;1.70;;
27746;SDS011;15138;51.012;4.692;2023-01-16T02:48:59;7.73;;;1.70;;
27746;SDS011;15138;51.012;4.692;2023-01-16T02:51:34;10.32;;;1.92;;
27746;SDS011;15138;51.012;4.692;2023-01-16T02:54:10;11.98;;;2.22;;
27746;SDS011;15138;51.012;4.692;2023-01-16T02:56:43;10.38;;;2.03;;
27746;SDS011;15138;51.012;4.692;2023-01-16T02:59:14;14.15;;;2.45;;
27746;SDS011;15138;51.012;4.692;2023-01-16T03:01:45;13.63;;;2.28;;
27746;SDS011;15138;51.012;4.692;2023-01-16T03:07:08;9.65;;;2.40;;
27746;SDS011;15138;51.012;4.692;2023-01-16T03:09:49;7.47;;;2.05;;
27746;SDS011;15138;51.012;4.692;2023-01-16T03:12:28;13.02;;;1.77;;
27746;SDS011;15138;51.012;4.692;2023-01-16T03:15:07;9.15;;;1.85;;
27746;SDS011;15138;51.012;4.692;2023-01-16T03:17:39;11.68;;;1.83;;
27746;SDS011;15138;51.012;4.692;2023-01-16T03:20:24;10.07;;;2.00;;
27746;SDS011;15138;51.012;4.692;2023-01-16T03:23:00;12.57;;;1.88;;
27746;SDS011;15138;51.012;4.692;2023-01-16T03:25:35;10.77;;;2.30;;
27746;SDS011;15138;51.012;4.692;2023-01-16T03:28:10;7.25;;;1.67;;
27746;SDS011;15138;51.012;4.692;2023-01-16T03:30:49;9.13;;;1.67;;
27746;SDS011;15138;51.012;4.692;2023-01-16T03:33:25;8.90;;;1.85;;
27746;SDS011;15138;51.012;4.692;2023-01-16T03:36:04;14.95;;;1.85;;
27746;SDS011;15138;51.012;4.692;2023-01-16T03:38:36;8.63;;;1.77;;
27746;SDS011;15138;51.012;4.692;2023-01-16T03:41:08;11.07;;;1.75;;
27746;SDS011;15138;51.012;4.692;2023-01-16T03:43:40;12.70;;;1.90;;
27746;SDS011;15138;51.012;4.692;2023-01-16T03:46:15;11.55;;;1.88;;
27746;SDS011;15138;51.012;4.692;2023-01-16T03:48:47;7.05;;;1.73;;
27746;SDS011;15138;51.012;4.692;2023-01-16T03:51:20;9.38;;;1.75;;
27746;SDS011;15138;51.012;4.692;2023-01-16T03:53:53;4.10;;;1.27;;
27746;SDS011;15138;51.012;4.692;2023-01-16T03:56:29;16.42;;;1.88;;
27746;SDS011;15138;51.012;4.692;2023-01-16T03:59:01;10.23;;;1.73;;
27746;SDS011;15138;51.012;4.692;2023-01-16T04:01:32;12.93;;;2.08;;
27746;SDS011;15138;51.012;4.692;2023-01-16T04:04:05;7.72;;;1.67;;
27746;SDS011;15138;51.012;4.692;2023-01-16T04:06:40;9.65;;;2.33;;
27746;SDS011;15138;51.012;4.692;2023-01-16T04:09:13;6.90;;;1.77;;
27746;SDS011;15138;51.012;4.692;2023-01-16T04:11:45;9.25;;;1.73;;
27746;SDS011;15138;51.012;4.692;2023-01-16T04:14:16;6.32;;;1.60;;
27746;SDS011;15138;51.012;4.692;2023-01-16T04:16:47;8.93;;;1.67;;
27746;SDS011;15138;51.012;4.692;2023-01-16T04:19:16;10.75;;;1.95;;
27746;SDS011;15138;51.012;4.692;2023-01-16T04:21:48;9.77;;;1.70;;
27746;SDS011;15138;51.012;4.692;2023-01-16T04:24:16;6.03;;;1.48;;
27746;SDS011;15138;51.012;4.692;2023-01-16T04:26:44;13.48;;;1.90;;
27746;SDS011;15138;51.012;4.692;2023-01-16T04:29:13;9.98;;;1.50;;
27746;SDS011;15138;51.012;4.692;2023-01-16T04:31:41;8.50;;;1.48;;
27746;SDS011;15138;51.012;4.692;2023-01-16T04:34:09;6.78;;;1.55;;
27746;SDS011;15138;51.012;4.692;2023-01-16T04:36:37;9.98;;;1.70;;
27746;SDS011;15138;51.012;4.692;2023-01-16T04:39:06;9.25;;;1.88;;
27746;SDS011;15138;51.012;4.692;2023-01-16T04:41:34;12.68;;;2.22;;
27746;SDS011;15138;51.012;4.692;2023-01-16T04:44:07;12.07;;;1.70;;
27746;SDS011;15138;51.012;4.692;2023-01-16T04:46:36;10.60;;;2.00;;
27746;SDS011;15138;51.012;4.692;2023-01-16T04:49:05;9.38;;;1.88;;
27746;SDS011;15138;51.012;4.692;2023-01-16T04:51:33;8.48;;;1.60;;
27746;SDS011;15138;51.012;4.692;2023-01-16T04:54:02;7.43;;;1.67;;
27746;SDS011;15138;51.012;4.692;2023-01-16T04:56:33;9.55;;;1.70;;
27746;SDS011;15138;51.012;4.692;2023-01-16T04:59:02;10.88;;;2.20;;
27746;SDS011;15138;51.012;4.692;2023-01-16T05:01:30;7.88;;;1.50;;
27746;SDS011;15138;51.012;4.692;2023-01-16T05:04:01;7.75;;;1.60;;
27746;SDS011;15138;51.012;4.692;2023-01-16T05:06:30;10.65;;;1.80;;
27746;SDS011;15138;51.012;4.692;2023-01-16T05:08:58;11.25;;;2.75;;
27746;SDS011;15138;51.012;4.692;2023-01-16T05:11:26;9.45;;;1.60;;
27746;SDS011;15138;51.012;4.692;2023-01-16T05:13:56;8.95;;;1.88;;
27746;SDS011;15138;51.012;4.692;2023-01-16T05:16:24;7.47;;;1.40;;
27746;SDS011;15138;51.012;4.692;2023-01-16T05:18:53;10.82;;;1.92;;
27746;SDS011;15138;51.012;4.692;2023-01-16T05:21:21;8.57;;;1.77;;
27746;SDS011;15138;51.012;4.692;2023-01-16T05:23:49;10.18;;;1.45;;
27746;SDS011;15138;51.012;4.692;2023-01-16T05:26:17;12.43;;;1.90;;
27746;SDS011;15138;51.012;4.692;2023-01-16T05:28:45;11.75;;;1.70;;
27746;SDS011;15138;51.012;4.692;2023-01-16T05:31:14;8.15;;;1.67;;
27746;SDS011;15138;51.012;4.692;2023-01-16T05:33:43;9.70;;;1.65;;
27746;SDS011;15138;51.012;4.692;2023-01-16T05:36:11;9.13;;;1.70;;
27746;SDS011;15138;51.012;4.692;2023-01-16T05:38:39;5.30;;;1.30;;
27746;SDS011;15138;51.012;4.692;2023-01-16T05:41:07;12.20;;;1.88;;
27746;SDS011;15138;51.012;4.692;2023-01-16T05:43:35;10.98;;;2.33;;
27746;SDS011;15138;51.012;4.692;2023-01-16T05:46:03;11.85;;;1.50;;
27746;SDS011;15138;51.012;4.692;2023-01-16T05:48:33;9.63;;;1.90;;
27746;SDS011;15138;51.012;4.692;2023-01-16T05:51:02;8.63;;;1.50;;
27746;SDS011;15138;51.012;4.692;2023-01-16T05:53:30;10.10;;;1.70;;
27746;SDS011;15138;51.012;4.692;2023-01-16T05:55:58;9.35;;;1.58;;
27746;SDS011;15138;51.012;4.692;2023-01-16T05:58:33;8.98;;;1.50;;
27746;SDS011;15138;51.012;4.692;2023-01-16T06:01:01;7.43;;;1.80;;
27746;SDS011;15138;51.012;4.692;2023-01-16T06:03:29;6.28;;;1.50;;
27746;SDS011;15138;51.012;4.692;2023-01-16T06:05:59;8.52;;;1.55;;
27746;SDS011;15138;51.012;4.692;2023-01-16T06:08:27;7.07;;;1.92;;
27746;SDS011;15138;51.012;4.692;2023-01-16T06:10:58;7.63;;;2.15;;
27746;SDS011;15138;51.012;4.692;2023-01-16T06:13:26;5.25;;;1.40;;
27746;SDS011;15138;51.012;4.692;2023-01-16T06:15:54;7.57;;;1.55;;
27746;SDS011;15138;51.012;4.692;2023-01-16T06:18:22;6.43;;;1.73;;
27746;SDS011;15138;51.012;4.692;2023-01-16T06:20:50;7.43;;;1.58;;
27746;SDS011;15138;51.012;4.692;2023-01-16T06:23:20;8.82;;;1.63;;
27746;SDS011;15138;51.012;4.692;2023-01-16T06:25:48;5.82;;;1.10;;
27746;SDS011;15138;51.012;4.692;2023-01-16T06:28:17;9.43;;;1.20;;
27746;SDS011;15138;51.012;4.692;2023-01-16T06:30:45;8.05;;;1.30;;
27746;SDS011;15138;51.012;4.692;2023-01-16T06:33:18;6.95;;;1.23;;
27746;SDS011;15138;51.012;4.692;2023-01-16T06:35:46;2.65;;;0.80;;
27746;SDS011;15138;51.012;4.692;2023-01-16T06:38:15;11.10;;;1.50;;
27746;SDS011;15138;51.012;4.692;2023-01-16T06:40:44;9.05;;;1.13;;
27746;SDS011;15138;51.012;4.692;2023-01-16T06:43:13;6.75;;;1.52;;
27746;SDS011;15138;51.012;4.692;2023-01-16T06:45:41;8.40;;;1.42;;
27746;SDS011;15138;51.012;4.692;2023-01-16T06:48:11;4.75;;;1.13;;
27746;SDS011;15138;51.012;4.692;2023-01-16T06:50:39;5.13;;;1.40;;
27746;SDS011;15138;51.012;4.692;2023-01-16T06:53:08;5.95;;;1.00;;
27746;SDS011;15138;51.012;4.692;2023-01-16T06:55:36;6.45;;;1.27;;
27746;SDS011;15138;51.012;4.692;2023-01-16T06:58:05;5.35;;;1.10;;
27746;SDS011;15138;51.012;4.692;2023-01-16T07:00:34;7.38;;;1.45;;
27746;SDS011;15138;51.012;4.692;2023-01-16T07:03:03;6.65;;;1.27;;
27746;SDS011;15138;51.012;4.692;2023-01-16T07:05:31;5.00;;;1.00;;
27746;SDS011;15138;51.012;4.692;2023-01-16T07:08:00;6.82;;;1.30;;
27746;SDS011;15138;51.012;4.692;2023-01-16T07:10:28;6.18;;;1.30;;
27746;SDS011;15138;51.012;4.692;2023-01-16T07:12:56;5.57;;;1.08;;
27746;SDS011;15138;51.012;4.692;2023-01-16T07:15:26;4.63;;;0.93;;
27746;SDS011;15138;51.012;4.692;2023-01-16T07:18:11;4.82;;;0.90;;
27746;SDS011;15138;51.012;4.692;2023-01-16T07:23:49;2.33;;;1.00;;
27746;SDS011;15138;51.012;4.692;2023-01-16T07:26:19;1.83;;;1.00;;
27746;SDS011;15138;51.012;4.692;2023-01-16T07:28:49;4.57;;;1.00;;
27746;SDS011;15138;51.012;4.692;2023-01-16T07:31:20;3.60;;;0.85;;
27746;SDS011;15138;51.012;4.692;2023-01-16T07:33:49;2.75;;;0.82;;
27746;SDS011;15138;51.012;4.692;2023-01-16T07:36:17;4.18;;;0.88;;
27746;SDS011;15138;51.012;4.692;2023-01-16T07:38:45;1.88;;;0.70;;
27746;SDS011;15138;51.012;4.692;2023-01-16T07:41:13;1.70;;;0.70;;
27746;SDS011;15138;51.012;4.692;2023-01-16T07:43:42;0.73;;;0.43;;
27746;SDS011;15138;51.012;4.692;2023-01-16T07:46:10;2.63;;;0.80;;
27746;SDS011;15138;51.012;4.692;2023-01-16T07:48:39;3.92;;;1.15;;
27746;SDS011;15138;51.012;4.692;2023-01-16T07:51:07;1.00;;;0.60;;
27746;SDS011;15138;51.012;4.692;2023-01-16T07:53:35;0.70;;;0.40;;
27746;SDS011;15138;51.012;4.692;2023-01-16T07:56:04;2.22;;;0.55;;
27746;SDS011;15138;51.012;4.692;2023-01-16T07:58:32;1.65;;;0.60;;
27746;SDS011;15138;51.012;4.692;2023-01-16T08:01:00;0.80;;;0.55;;
27746;SDS011;15138;51.012;4.692;2023-01-16T08:03:28;1.98;;;0.60;;
27746;SDS011;15138;51.012;4.692;2023-01-16T08:05:58;0.68;;;0.43;;
27746;SDS011;15138;51.012;4.692;2023-01-16T08:08:28;1.25;;;0.40;;
27746;SDS011;15138;51.012;4.692;2023-01-16T08:10:57;1.15;;;0.50;;
27746;SDS011;15138;51.012;4.692;2023-01-16T08:13:26;0.75;;;0.50;;
27746;SDS011;15138;51.012;4.692;2023-01-16T08:16:06;3.38;;;1.00;;
27746;SDS011;15138;51.012;4.692;2023-01-16T08:18:34;1.10;;;0.50;;
27746;SDS011;15138;51.012;4.692;2023-01-16T08:21:04;0.63;;;0.47;;
27746;SDS011;15138;51.012;4.692;2023-01-16T08:23:32;2.75;;;0.80;;
27746;SDS011;15138;51.012;4.692;2023-01-16T08:26:00;0.80;;;0.52;;
27746;SDS011;15138;51.012;4.692;2023-01-16T08:28:28;0.60;;;0.43;;
27746;SDS011;15138;51.012;4.692;2023-01-16T08:31:02;0.95;;;0.60;;
27746;SDS011;15138;51.012;4.692;2023-01-16T08:33:34;1.10;;;0.60;;
27746;SDS011;15138;51.012;4.692;2023-01-16T08:36:02;1.13;;;0.50;;
27746;SDS011;15138;51.012;4.692;2023-01-16T08:38:33;0.68;;;0.45;;
27746;SDS011;15138;51.012;4.692;2023-01-16T08:41:02;1.45;;;0.60;;
27746;SDS011;15138;51.012;4.692;2023-01-16T08:43:30;0.68;;;0.50;;
27746;SDS011;15138;51.012;4.692;2023-01-16T08:46:16;0.65;;;0.65;;
27746;SDS011;15138;51.012;4.692;2023-01-16T08:49:03;0.95;;;0.50;;
27746;SDS011;15138;51.012;4.692;2023-01-16T08:51:55;1.23;;;0.52;;
27746;SDS011;15138;51.012;4.692;2023-01-16T08:54:23;0.63;;;0.40;;
27746;SDS011;15138;51.012;4.692;2023-01-16T08:56:51;1.30;;;0.70;;
27746;SDS011;15138;51.012;4.692;2023-01-16T08:59:20;2.67;;;0.70;;
27746;SDS011;15138;51.012;4.692;2023-01-16T09:01:48;0.90;;;0.47;;
27746;SDS011;15138;51.012;4.692;2023-01-16T09:04:16;2.72;;;1.00;;
27746;SDS011;15138;51.012;4.692;2023-01-16T09:06:44;1.60;;;0.55;;
27746;SDS011;15138;51.012;4.692;2023-01-16T09:09:14;2.05;;;0.60;;
27746;SDS011;15138;51.012;4.692;2023-01-16T09:11:42;2.28;;;0.82;;
27746;SDS011;15138;51.012;4.692;2023-01-16T09:14:28;0.63;;;0.60;;
27746;SDS011;15138;51.012;4.692;2023-01-16T09:16:56;1.48;;;0.68;;
27746;SDS011;15138;51.012;4.692;2023-01-16T09:19:25;0.75;;;0.50;;
27746;SDS011;15138;51.012;4.692;2023-01-16T09:21:53;1.48;;;0.70;;
27746;SDS011;15138;51.012;4.692;2023-01-16T09:24:22;1.60;;;0.65;;
27746;SDS011;15138;51.012;4.692;2023-01-16T09:26:51;1.50;;;0.50;;
27746;SDS011;15138;51.012;4.692;2023-01-16T09:29:19;3.47;;;0.60;;
27746;SDS011;15138;51.012;4.692;2023-01-16T09:31:47;1.00;;;0.60;;
27746;SDS011;15138;51.012;4.692;2023-01-16T09:34:15;3.35;;;0.55;;
27746;SDS011;15138;51.012;4.692;2023-01-16T09:36:43;0.95;;;0.60;;
27746;SDS011;15138;51.012;4.692;2023-01-16T09:39:12;2.75;;;0.70;;
27746;SDS011;15138;51.012;4.692;2023-01-16T09:41:42;0.90;;;0.50;;
27746;SDS011;15138;51.012;4.692;2023-01-16T09:44:37;2.28;;;0.60;;
27746;SDS011;15138;51.012;4.692;2023-01-16T09:47:06;1.77;;;0.60;;
27746;SDS011;15138;51.012;4.692;2023-01-16T09:49:38;3.58;;;0.63;;
27746;SDS011;15138;51.012;4.692;2023-01-16T09:52:16;1.27;;;0.70;;
27746;SDS011;15138;51.012;4.692;2023-01-16T09:55:06;1.65;;;0.77;;
27746;SDS011;15138;51.012;4.692;2023-01-16T09:58:01;0.63;;;0.57;;
27746;SDS011;15138;51.012;4.692;2023-01-16T10:00:49;4.13;;;1.58;;
27746;SDS011;15138;51.012;4.692;2023-01-16T10:03:17;2.15;;;0.70;;
27746;SDS011;15138;51.012;4.692;2023-01-16T10:05:47;2.97;;;0.70;;
27746;SDS011;15138;51.012;4.692;2023-01-16T10:08:22;1.70;;;0.90;;
27746;SDS011;15138;51.012;4.692;2023-01-16T10:10:58;3.95;;;0.80;;
27746;SDS011;15138;51.012;4.692;2023-01-16T10:13:36;4.03;;;1.75;;
27746;SDS011;15138;51.012;4.692;2023-01-16T10:16:15;2.40;;;0.90;;
27746;SDS011;15138;51.012;4.692;2023-01-16T10:18:52;1.63;;;0.85;;
27746;SDS011;15138;51.012;4.692;2023-01-16T10:21:32;1.30;;;0.80;;
27746;SDS011;15138;51.012;4.692;2023-01-16T10:24:11;2.17;;;0.80;;
27746;SDS011;15138;51.012;4.692;2023-01-16T10:26:50;2.60;;;0.88;;
27746;SDS011;15138;51.012;4.692;2023-01-16T10:29:28;1.73;;;0.75;;
27746;SDS011;15138;51.012;4.692;2023-01-16T10:32:02;2.58;;;0.95;;
27746;SDS011;15138;51.012;4.692;2023-01-16T10:34:33;3.15;;;0.75;;
27746;SDS011;15138;51.012;4.692;2023-01-16T10:37:06;2.83;;;1.00;;
27746;SDS011;15138;51.012;4.692;2023-01-16T10:39:36;1.35;;;0.80;;
27746;SDS011;15138;51.012;4.692;2023-01-16T10:42:11;6.63;;;3.10;;
27746;SDS011;15138;51.012;4.692;2023-01-16T10:45:01;7.32;;;2.10;;
27746;SDS011;15138;51.012;4.692;2023-01-16T10:48:03;1.33;;;0.75;;
27746;SDS011;15138;51.012;4.692;2023-01-16T10:50:49;2.88;;;1.38;;
27746;SDS011;15138;51.012;4.692;2023-01-16T10:53:17;1.60;;;0.80;;
27746;SDS011;15138;51.012;4.692;2023-01-16T10:55:46;0.90;;;0.73;;
27746;SDS011;15138;51.012;4.692;2023-01-16T10:58:20;1.60;;;1.13;;
27746;SDS011;15138;51.012;4.692;2023-01-16T11:00:58;2.08;;;0.82;;
27746;SDS011;15138;51.012;4.692;2023-01-16T11:03:42;1.65;;;0.70;;
27746;SDS011;15138;51.012;4.692;2023-01-16T11:06:16;0.80;;;0.70;;
27746;SDS011;15138;51.012;4.692;2023-01-16T11:09:14;1.05;;;0.55;;
27746;SDS011;15138;51.012;4.692;2023-01-16T11:12:07;1.02;;;0.50;;
27746;SDS011;15138;51.012;4.692;2023-01-16T11:21:57;1.52;;;0.40;;
27746;SDS011;15138;51.012;4.692;2023-01-16T11:24:40;3.03;;;0.60;;
27746;SDS011;15138;51.012;4.692;2023-01-16T11:27:23;2.28;;;0.60;;
27746;SDS011;15138;51.012;4.692;2023-01-16T11:30:22;3.42;;;0.90;;
27746;SDS011;15138;51.012;4.692;2023-01-16T11:33:12;0.77;;;0.50;;
27746;SDS011;15138;51.012;4.692;2023-01-16T11:35:51;0.70;;;0.50;;
27746;SDS011;15138;51.012;4.692;2023-01-16T11:41:52;1.05;;;0.55;;
27746;SDS011;15138;51.012;4.692;2023-01-16T11:44:59;0.93;;;0.55;;
27746;SDS011;15138;51.012;4.692;2023-01-16T11:48:00;2.15;;;0.70;;
27746;SDS011;15138;51.012;4.692;2023-01-16T11:50:57;3.05;;;1.10;;
27746;SDS011;15138;51.012;4.692;2023-01-16T11:56:50;0.80;;;0.57;;
27746;SDS011;15138;51.012;4.692;2023-01-16T11:59:45;2.92;;;0.57;;
27746;SDS011;15138;51.012;4.692;2023-01-16T12:02:59;2.17;;;0.60;;
27746;SDS011;15138;51.012;4.692;2023-01-16T12:09:30;1.00;;;0.70;;
27746;SDS011;15138;51.012;4.692;2023-01-16T12:12:18;0.80;;;0.50;;
27746;SDS011;15138;51.012;4.692;2023-01-16T12:15:36;0.60;;;0.50;;
27746;SDS011;15138;51.012;4.692;2023-01-16T12:18:39;2.47;;;0.73;;
27746;SDS011;15138;51.012;4.692;2023-01-16T12:21:33;1.77;;;0.70;;
27746;SDS011;15138;51.012;4.692;2023-01-16T12:24:53;1.40;;;0.40;;
27746;SDS011;15138;51.012;4.692;2023-01-16T12:27:43;0.55;;;0.45;;
27746;SDS011;15138;51.012;4.692;2023-01-16T12:31:46;1.10;;;0.55;;
27746;SDS011;15138;51.012;4.692;2023-01-16T12:34:16;1.10;;;0.70;;
27746;SDS011;15138;51.012;4.692;2023-01-16T12:37:22;0.55;;;0.50;;
27746;SDS011;15138;51.012;4.692;2023-01-16T12:40:30;0.95;;;0.50;;
27746;SDS011;15138;51.012;4.692;2023-01-16T12:43:36;1.20;;;0.50;;
27746;SDS011;15138;51.012;4.692;2023-01-16T12:46:18;0.65;;;0.60;;
27746;SDS011;15138;51.012;4.692;2023-01-16T12:49:03;1.45;;;0.70;;
27746;SDS011;15138;51.012;4.692;2023-01-16T12:52:04;0.85;;;0.60;;
27746;SDS011;15138;51.012;4.692;2023-01-16T12:54:51;1.25;;;0.70;;
27746;SDS011;15138;51.012;4.692;2023-01-16T12:57:45;1.15;;;0.70;;
27746;SDS011;15138;51.012;4.692;2023-01-16T13:00:38;2.10;;;0.60;;
27746;SDS011;15138;51.012;4.692;2023-01-16T13:11:15;1.92;;;0.60;;
27746;SDS011;15138;51.012;4.692;2023-01-16T13:17:49;1.10;;;0.70;;
27746;SDS011;15138;51.012;4.692;2023-01-16T13:24:19;1.45;;;0.60;;
27746;SDS011;15138;51.012;4.692;2023-01-16T13:27:31;3.75;;;0.57;;
27746;SDS011;15138;51.012;4.692;2023-01-16T13:30:16;2.50;;;0.70;;
27746;SDS011;15138;51.012;4.692;2023-01-16T13:33:16;1.95;;;0.57;;
27746;SDS011;15138;51.012;4.692;2023-01-16T13:36:17;0.98;;;0.73;;
27746;SDS011;15138;51.012;4.692;2023-01-16T13:39:41;1.45;;;0.77;;
27746;SDS011;15138;51.012;4.692;2023-01-16T13:42:50;1.17;;;0.80;;
27746;SDS011;15138;51.012;4.692;2023-01-16T13:52:49;1.40;;;0.80;;
27746;SDS011;15138;51.012;4.692;2023-01-16T14:00:16;1.58;;;0.85;;
27746;SDS011;15138;51.012;4.692;2023-01-16T14:03:18;4.82;;;0.90;;
27746;SDS011;15138;51.012;4.692;2023-01-16T14:09:20;1.17;;;0.80;;
27746;SDS011;15138;51.012;4.692;2023-01-16T14:12:17;1.98;;;1.00;;
27746;SDS011;15138;51.012;4.692;2023-01-16T14:15:14;1.45;;;0.90;;
27746;SDS011;15138;51.012;4.692;2023-01-16T14:18:23;3.03;;;0.80;;
27746;SDS011;15138;51.012;4.692;2023-01-16T14:21:41;3.47;;;1.20;;
27746;SDS011;15138;51.012;4.692;2023-01-16T14:25:02;2.53;;;1.20;;
27746;SDS011;15138;51.012;4.692;2023-01-16T14:27:55;2.67;;;1.20;;
27746;SDS011;15138;51.012;4.692;2023-01-16T14:30:33;2.28;;;1.20;;
27746;SDS011;15138;51.012;4.692;2023-01-16T14:33:23;2.05;;;1.05;;
27746;SDS011;15138;51.012;4.692;2023-01-16T14:36:13;3.22;;;1.10;;
27746;SDS011;15138;51.012;4.692;2023-01-16T14:39:02;3.47;;;1.10;;
27746;SDS011;15138;51.012;4.692;2023-01-16T14:42:05;2.70;;;1.40;;
27746;SDS011;15138;51.012;4.692;2023-01-16T14:45:13;5.13;;;1.65;;
27746;SDS011;15138;51.012;4.692;2023-01-16T14:48:31;3.42;;;1.17;;
27746;SDS011;15138;51.012;4.692;2023-01-16T14:52:13;2.25;;;1.40;;
27746;SDS011;15138;51.012;4.692;2023-01-16T14:55:12;1.85;;;0.88;;
27746;SDS011;15138;51.012;4.692;2023-01-16T14:58:29;2.95;;;1.10;;
27746;SDS011;15138;51.012;4.692;2023-01-16T15:04:49;1.20;;;0.77;;
27746;SDS011;15138;51.012;4.692;2023-01-16T15:07:51;1.90;;;1.05;;
27746;SDS011;15138;51.012;4.692;2023-01-16T15:10:44;1.55;;;1.15;;
27746;SDS011;15138;51.012;4.692;2023-01-16T15:14:12;2.35;;;1.23;;
27746;SDS011;15138;51.012;4.692;2023-01-16T15:17:16;1.75;;;1.08;;
27746;SDS011;15138;51.012;4.692;2023-01-16T15:20:21;3.05;;;1.10;;
27746;SDS011;15138;51.012;4.692;2023-01-16T15:23:30;1.98;;;1.20;;
27746;SDS011;15138;51.012;4.692;2023-01-16T15:26:40;1.80;;;1.10;;
27746;SDS011;15138;51.012;4.692;2023-01-16T15:30:11;4.90;;;1.25;;
27746;SDS011;15138;51.012;4.692;2023-01-16T15:36:39;2.50;;;1.02;;
27746;SDS011;15138;51.012;4.692;2023-01-16T15:39:30;2.30;;;1.60;;
27746;SDS011;15138;51.012;4.692;2023-01-16T15:43:00;2.13;;;1.30;;
27746;SDS011;15138;51.012;4.692;2023-01-16T15:52:41;2.95;;;1.80;;
27746;SDS011;15138;51.012;4.692;2023-01-16T15:55:25;3.55;;;2.05;;
27746;SDS011;15138;51.012;4.692;2023-01-16T15:58:02;3.78;;;2.13;;
27746;SDS011;15138;51.012;4.692;2023-01-16T16:00:54;2.92;;;2.00;;
27746;SDS011;15138;51.012;4.692;2023-01-16T16:03:41;3.92;;;2.13;;
27746;SDS011;15138;51.012;4.692;2023-01-16T16:11:14;3.00;;;1.30;;
27746;SDS011;15138;51.012;4.692;2023-01-16T16:14:04;1.52;;;1.02;;
27746;SDS011;15138;51.012;4.692;2023-01-16T16:17:00;3.95;;;1.88;;
27746;SDS011;15138;51.012;4.692;2023-01-16T16:19:56;3.10;;;2.08;;
27746;SDS011;15138;51.012;4.692;2023-01-16T16:22:29;2.42;;;1.65;;
27746;SDS011;15138;51.012;4.692;2023-01-16T16:25:26;4.03;;;0.88;;
27746;SDS011;15138;51.012;4.692;2023-01-16T16:31:49;1.75;;;1.40;;
27746;SDS011;15138;51.012;4.692;2023-01-16T16:34:26;2.53;;;1.63;;
27746;SDS011;15138;51.012;4.692;2023-01-16T16:37:08;2.47;;;1.42;;
27746;SDS011;15138;51.012;4.692;2023-01-16T16:39:48;2.70;;;1.60;;
27746;SDS011;15138;51.012;4.692;2023-01-16T16:45:47;1.77;;;1.13;;
27746;SDS011;15138;51.012;4.692;2023-01-16T16:48:34;1.30;;;1.00;;
27746;SDS011;15138;51.012;4.692;2023-01-16T16:51:19;1.00;;;0.75;;
27746;SDS011;15138;51.012;4.692;2023-01-16T16:54:06;0.95;;;0.80;;
27746;SDS011;15138;51.012;4.692;2023-01-16T16:56:42;2.50;;;0.85;;
27746;SDS011;15138;51.012;4.692;2023-01-16T16:59:24;1.20;;;0.95;;
27746;SDS011;15138;51.012;4.692;2023-01-16T17:02:20;0.80;;;0.75;;
27746;SDS011;15138;51.012;4.692;2023-01-16T17:04:58;3.15;;;1.20;;
27746;SDS011;15138;51.012;4.692;2023-01-16T17:07:35;0.55;;;0.47;;
27746;SDS011;15138;51.012;4.692;2023-01-16T17:10:12;0.77;;;0.75;;
27746;SDS011;15138;51.012;4.692;2023-01-16T17:12:59;1.17;;;0.77;;
27746;SDS011;15138;51.012;4.692;2023-01-16T17:15:35;1.73;;;1.23;;
27746;SDS011;15138;51.012;4.692;2023-01-16T17:18:10;1.67;;;1.10;;
27746;SDS011;15138;51.012;4.692;2023-01-16T17:21:01;2.08;;;1.27;;